sensor_id;sensor_type;location;lat;lon;timestamp;pressure;altitude;pressure_sealevel;temperature;humidity
9460;BME280;4768;42.664;23.240;2023-05-11T00:01:14;-9661.38;;;8.81;100.00
9460;BME280;4768;42.664;23.240;2023-05-11T00:03:41;-9660.66;;;8.78;100.00
9460;BME280;4768;42.664;23.240;2023-05-11T00:06:08;-9659.66;;;8.75;100.00
9460;BME280;4768;42.664;23.240;2023-05-11T00:08:35;-9659.25;;;8.73;100.00
9460;BME280;4768;42.664;23.240;2023-05-11T00:11:01;-9658.41;;;8.70;100.00
9460;BME280;4768;42.664;23.240;2023-05-11T00:13:29;-9657.41;;;8.67;100.00
9460;BME280;4768;42.664;23.240;2023-05-11T00:15:56;-9656.56;;;8.64;100.00
9460;BME280;4768;42.664;23.240;2023-05-11T00:18:23;-9655.56;;;8.61;100.00
9460;BME280;4768;42.664;23.240;2023-05-11T00:20:50;-9655.28;;;8.60;100.00
9460;BME280;4768;42.664;23.240;2023-05-11T00:23:17;-9654.56;;;8.57;100.00
9460;BME280;4768;42.664;23.240;2023-05-11T00:25:43;-9654.13;;;8.56;100.00
9460;BME280;4768;42.664;23.240;2023-05-11T00:28:10;-9652.44;;;8.50;100.00
9460;BME280;4768;42.664;23.240;2023-05-11T00:30:40;-9651.31;;;8.46;100.00
9460;BME280;4768;42.664;23.240;2023-05-11T00:33:06;-9651.44;;;8.46;100.00
9460;BME280;4768;42.664;23.240;2023-05-11T00:35:33;-9651.03;;;8.45;100.00
9460;BME280;4768;42.664;23.240;2023-05-11T00:38:00;-9651.16;;;8.45;100.00
9460;BME280;4768;42.664;23.240;2023-05-11T00:40:27;-9651.03;;;8.45;100.00
9460;BME280;4768;42.664;23.240;2023-05-11T00:42:54;-9650.31;;;8.42;100.00
9460;BME280;4768;42.664;23.240;2023-05-11T00:45:20;-9649.31;;;8.39;100.00
9460;BME280;4768;42.664;23.240;2023-05-11T00:47:49;-9650.03;;;8.41;100.00
9460;BME280;4768;42.664;23.240;2023-05-11T00:50:16;-9649.88;;;8.41;100.00
9460;BME280;4768;42.664;23.240;2023-05-11T00:52:44;-9650.59;;;8.43;100.00
9460;BME280;4768;42.664;23.240;2023-05-11T00:55:12;-9650.59;;;8.43;100.00
9460;BME280;4768;42.664;23.240;2023-05-11T00:57:39;-9650.47;;;8.43;100.00
9460;BME280;4768;42.664;23.240;2023-05-11T01:00:07;-9650.75;;;8.44;100.00
9460;BME280;4768;42.664;23.240;2023-05-11T01:02:34;-9649.19;;;8.38;100.00
9460;BME280;4768;42.664;23.240;2023-05-11T01:05:03;-9648.19;;;8.35;100.00
9460;BME280;4768;42.664;23.240;2023-05-11T01:07:35;-9647.91;;;8.34;100.00
9460;BME280;4768;42.664;23.240;2023-05-11T01:10:07;-9644.94;;;8.23;100.00
9460;BME280;4768;42.664;23.240;2023-05-11T01:12:42;-9647.34;;;8.32;100.00
9460;BME280;4768;42.664;23.240;2023-05-11T01:15:11;-9647.63;;;8.33;100.00
9460;BME280;4768;42.664;23.240;2023-05-11T01:17:44;-9647.63;;;8.33;100.00
9460;BME280;4768;42.664;23.240;2023-05-11T01:20:17;-9646.22;;;8.28;100.00
9460;BME280;4768;42.664;23.240;2023-05-11T01:23:01;-9643.66;;;8.19;100.00
9460;BME280;4768;42.664;23.240;2023-05-11T01:25:47;-9642.38;;;8.15;100.00
9460;BME280;4768;42.664;23.240;2023-05-11T01:28:28;-9644.06;;;8.20;100.00
9460;BME280;4768;42.664;23.240;2023-05-11T01:31:08;-9642.81;;;8.16;100.00
9460;BME280;4768;42.664;23.240;2023-05-11T01:33:36;-9641.25;;;8.11;100.00
9460;BME280;4768;42.664;23.240;2023-05-11T01:36:08;-9641.25;;;8.11;100.00
9460;BME280;4768;42.664;23.240;2023-05-11T01:38:38;-9640.97;;;8.10;100.00
9460;BME280;4768;42.664;23.240;2023-05-11T01:41:10;-9639.69;;;8.05;100.00
9460;BME280;4768;42.664;23.240;2023-05-11T01:43:40;-9640.53;;;8.08;100.00
9460;BME280;4768;42.664;23.240;2023-05-11T01:46:10;-9641.09;;;8.10;100.00
9460;BME280;4768;42.664;23.240;2023-05-11T01:48:40;-9641.25;;;8.11;100.00
9460;BME280;4768;42.664;23.240;2023-05-11T01:51:08;-9641.53;;;8.12;100.00
9460;BME280;4768;42.664;23.240;2023-05-11T01:53:36;-9642.25;;;8.14;100.00
9460;BME280;4768;42.664;23.240;2023-05-11T01:56:05;-9643.66;;;8.19;100.00
9460;BME280;4768;42.664;23.240;2023-05-11T01:58:33;-9643.22;;;8.18;100.00
9460;BME280;4768;42.664;23.240;2023-05-11T02:01:02;-9643.94;;;8.20;100.00
9460;BME280;4768;42.664;23.240;2023-05-11T02:03:31;-9642.09;;;8.14;100.00
9460;BME280;4768;42.664;23.240;2023-05-11T02:06:02;-9639.25;;;8.04;100.00
9460;BME280;4768;42.664;23.240;2023-05-11T02:08:30;-9642.09;;;8.14;100.00
9460;BME280;4768;42.664;23.240;2023-05-11T02:10:58;-9640.53;;;8.08;100.00
9460;BME280;4768;42.664;23.240;2023-05-11T02:13:26;-9640.41;;;8.08;100.00
9460;BME280;4768;42.664;23.240;2023-05-11T02:15:55;-9639.81;;;8.06;100.00
9460;BME280;4768;42.664;23.240;2023-05-11T02:18:22;-9640.41;;;8.08;100.00
9460;BME280;4768;42.664;23.240;2023-05-11T02:20:52;-9640.09;;;8.07;100.00
9460;BME280;4768;42.664;23.240;2023-05-11T02:23:20;-9640.41;;;8.08;100.00
9460;BME280;4768;42.664;23.240;2023-05-11T02:25:51;-9640.53;;;8.08;100.00
9460;BME280;4768;42.664;23.240;2023-05-11T02:28:18;-9640.81;;;8.09;100.00
9460;BME280;4768;42.664;23.240;2023-05-11T02:30:46;-9639.81;;;8.06;100.00
9460;BME280;4768;42.664;23.240;2023-05-11T02:33:19;-9639.69;;;8.05;100.00
9460;BME280;4768;42.664;23.240;2023-05-11T02:35:47;-9641.38;;;8.11;100.00
9460;BME280;4768;42.664;23.240;2023-05-11T02:38:17;-9640.81;;;8.09;100.00
9460;BME280;4768;42.664;23.240;2023-05-11T02:40:47;-9640.41;;;8.08;100.00
9460;BME280;4768;42.664;23.240;2023-05-11T02:43:19;-9638.41;;;8.01;100.00
9460;BME280;4768;42.664;23.240;2023-05-11T02:45:49;-9639.53;;;8.05;100.00
9460;BME280;4768;42.664;23.240;2023-05-11T02:48:20;-9638.84;;;8.02;100.00
9460;BME280;4768;42.664;23.240;2023-05-11T02:50:50;-9638.97;;;8.03;100.00
9460;BME280;4768;42.664;23.240;2023-05-11T02:53:19;-9637.28;;;7.97;100.00
9460;BME280;4768;42.664;23.240;2023-05-11T02:55:49;-9636.56;;;7.94;100.00
9460;BME280;4768;42.664;23.240;2023-05-11T02:58:17;-9634.31;;;7.86;100.00
9460;BME280;4768;42.664;23.240;2023-05-11T03:00:45;-9630.91;;;7.74;100.00
9460;BME280;4768;42.664;23.240;2023-05-11T03:03:12;-9629.34;;;7.69;100.00
9460;BME280;4768;42.664;23.240;2023-05-11T03:05:39;-9628.06;;;7.65;100.00
9460;BME280;4768;42.664;23.240;2023-05-11T03:08:05;-9624.94;;;7.54;100.00
9460;BME280;4768;42.664;23.240;2023-05-11T03:10:34;-9625.38;;;7.55;100.00
9460;BME280;4768;42.664;23.240;2023-05-11T03:13:01;-9624.81;;;7.53;100.00
9460;BME280;4768;42.664;23.240;2023-05-11T03:15:29;-9624.25;;;7.51;100.00
9460;BME280;4768;42.664;23.240;2023-05-11T03:17:57;-9623.97;;;7.50;100.00
9460;BME280;4768;42.664;23.240;2023-05-11T03:20:26;-9622.97;;;7.47;100.00
9460;BME280;4768;42.664;23.240;2023-05-11T03:22:54;-9622.41;;;7.45;100.00
9460;BME280;4768;42.664;23.240;2023-05-11T03:25:22;-9622.53;;;7.45;100.00
9460;BME280;4768;42.664;23.240;2023-05-11T03:27:52;-9621.97;;;7.43;100.00
9460;BME280;4768;42.664;23.240;2023-05-11T03:30:21;-9622.25;;;7.44;100.00
9460;BME280;4768;42.664;23.240;2023-05-11T03:32:49;-9622.41;;;7.45;100.00
9460;BME280;4768;42.664;23.240;2023-05-11T03:35:16;-9622.41;;;7.45;100.00
9460;BME280;4768;42.664;23.240;2023-05-11T03:37:43;-9621.00;;;7.40;100.00
9460;BME280;4768;42.664;23.240;2023-05-11T03:40:11;-9621.84;;;7.43;100.00
9460;BME280;4768;42.664;23.240;2023-05-11T03:42:41;-9621.41;;;7.41;100.00
9460;BME280;4768;42.664;23.240;2023-05-11T03:45:12;-9622.81;;;7.46;100.00
9460;BME280;4768;42.664;23.240;2023-05-11T03:47:40;-9621.84;;;7.43;100.00
9460;BME280;4768;42.664;23.240;2023-05-11T03:50:08;-9621.69;;;7.42;100.00
9460;BME280;4768;42.664;23.240;2023-05-11T03:52:35;-9621.56;;;7.42;100.00
9460;BME280;4768;42.664;23.240;2023-05-11T03:55:03;-9621.84;;;7.43;100.00
9460;BME280;4768;42.664;23.240;2023-05-11T03:57:30;-9622.13;;;7.44;100.00
9460;BME280;4768;42.664;23.240;2023-05-11T03:59:57;-9622.41;;;7.45;100.00
9460;BME280;4768;42.664;23.240;2023-05-11T04:02:25;-9621.84;;;7.43;100.00
9460;BME280;4768;42.664;23.240;2023-05-11T04:04:52;-9620.69;;;7.39;100.00
9460;BME280;4768;42.664;23.240;2023-05-11T04:07:19;-9621.28;;;7.41;100.00
9460;BME280;4768;42.664;23.240;2023-05-11T04:09:46;-9619.44;;;7.34;100.00
9460;BME280;4768;42.664;23.240;2023-05-11T04:12:12;-9620.69;;;7.39;100.00
9460;BME280;4768;42.664;23.240;2023-05-11T04:14:39;-9622.13;;;7.44;100.00
9460;BME280;4768;42.664;23.240;2023-05-11T04:17:06;-9620.41;;;7.38;100.00
9460;BME280;4768;42.664;23.240;2023-05-11T04:19:34;-9621.00;;;7.40;100.00
9460;BME280;4768;42.664;23.240;2023-05-11T04:22:00;-9622.81;;;7.46;100.00
9460;BME280;4768;42.664;23.240;2023-05-11T04:24:27;-9620.28;;;7.37;100.00
9460;BME280;4768;42.664;23.240;2023-05-11T04:26:57;-9621.13;;;7.40;100.00
9460;BME280;4768;42.664;23.240;2023-05-11T04:29:24;-9617.88;;;7.29;100.00
9460;BME280;4768;42.664;23.240;2023-05-11T04:31:51;-9620.69;;;7.39;100.00
9460;BME280;4768;42.664;23.240;2023-05-11T04:34:17;-9619.84;;;7.36;100.00
9460;BME280;4768;42.664;23.240;2023-05-11T04:36:47;-9619.28;;;7.34;100.00
9460;BME280;4768;42.664;23.240;2023-05-11T04:39:14;-9618.44;;;7.31;100.00
9460;BME280;4768;42.664;23.240;2023-05-11T04:41:41;-9617.72;;;7.28;100.00
9460;BME280;4768;42.664;23.240;2023-05-11T04:44:08;-9618.56;;;7.31;100.00
9460;BME280;4768;42.664;23.240;2023-05-11T04:46:35;-9618.56;;;7.31;100.00
9460;BME280;4768;42.664;23.240;2023-05-11T04:49:02;-9617.44;;;7.27;100.00
9460;BME280;4768;42.664;23.240;2023-05-11T04:51:29;-9619.28;;;7.34;100.00
9460;BME280;4768;42.664;23.240;2023-05-11T04:53:58;-9617.44;;;7.27;100.00
9460;BME280;4768;42.664;23.240;2023-05-11T04:56:24;-9619.00;;;7.33;100.00
9460;BME280;4768;42.664;23.240;2023-05-11T04:58:51;-9619.28;;;7.34;100.00
9460;BME280;4768;42.664;23.240;2023-05-11T05:01:18;-9620.13;;;7.37;100.00
9460;BME280;4768;42.664;23.240;2023-05-11T05:03:47;-9621.13;;;7.40;100.00
9460;BME280;4768;42.664;23.240;2023-05-11T05:06:14;-9621.41;;;7.41;100.00
9460;BME280;4768;42.664;23.240;2023-05-11T05:08:40;-9619.28;;;7.34;100.00
9460;BME280;4768;42.664;23.240;2023-05-11T05:11:08;-9620.69;;;7.39;100.00
9460;BME280;4768;42.664;23.240;2023-05-11T05:13:35;-9622.97;;;7.47;100.00
9460;BME280;4768;42.664;23.240;2023-05-11T05:16:03;-9620.41;;;7.38;100.00
9460;BME280;4768;42.664;23.240;2023-05-11T05:18:31;-9621.84;;;7.43;100.00
9460;BME280;4768;42.664;23.240;2023-05-11T05:20:58;-9620.84;;;7.39;100.00
9460;BME280;4768;42.664;23.240;2023-05-11T05:23:24;-9625.38;;;7.55;100.00
9460;BME280;4768;42.664;23.240;2023-05-11T05:25:51;-9620.13;;;7.37;100.00
9460;BME280;4768;42.664;23.240;2023-05-11T05:28:19;-9619.28;;;7.34;100.00
9460;BME280;4768;42.664;23.240;2023-05-11T05:30:46;-9620.00;;;7.36;100.00
9460;BME280;4768;42.664;23.240;2023-05-11T05:33:13;-9622.25;;;7.44;100.00
9460;BME280;4768;42.664;23.240;2023-05-11T05:35:40;-9623.69;;;7.49;100.00
9460;BME280;4768;42.664;23.240;2023-05-11T05:38:08;-9624.09;;;7.51;100.00
9460;BME280;4768;42.664;23.240;2023-05-11T05:40:35;-9623.25;;;7.48;100.00
9460;BME280;4768;42.664;23.240;2023-05-11T05:43:05;-9625.38;;;7.55;100.00
9460;BME280;4768;42.664;23.240;2023-05-11T05:45:33;-9626.50;;;7.59;100.00
9460;BME280;4768;42.664;23.240;2023-05-11T05:48:00;-9625.25;;;7.55;100.00
9460;BME280;4768;42.664;23.240;2023-05-11T05:50:26;-9630.75;;;7.74;100.00
9460;BME280;4768;42.664;23.240;2023-05-11T05:52:53;-9628.78;;;7.67;100.00
9460;BME280;4768;42.664;23.240;2023-05-11T05:55:20;-9628.91;;;7.68;100.00
9460;BME280;4768;42.664;23.240;2023-05-11T05:57:48;-9630.06;;;7.71;100.00
9460;BME280;4768;42.664;23.240;2023-05-11T06:00:15;-9635.72;;;7.91;100.00
9460;BME280;4768;42.664;23.240;2023-05-11T06:02:45;-9633.16;;;7.82;100.00
9460;BME280;4768;42.664;23.240;2023-05-11T06:05:12;-9628.50;;;7.66;100.00
9460;BME280;4768;42.664;23.240;2023-05-11T06:07:39;-9630.34;;;7.72;100.00
9460;BME280;4768;42.664;23.240;2023-05-11T06:10:06;-9630.34;;;7.72;100.00
9460;BME280;4768;42.664;23.240;2023-05-11T06:12:33;-9628.91;;;7.68;100.00
9460;BME280;4768;42.664;23.240;2023-05-11T06:15:00;-9628.50;;;7.66;100.00
9460;BME280;4768;42.664;23.240;2023-05-11T06:17:27;-9630.63;;;7.73;100.00
9460;BME280;4768;42.664;23.240;2023-05-11T06:19:55;-9635.16;;;7.89;100.00
9460;BME280;4768;42.664;23.240;2023-05-11T06:22:22;-9625.66;;;7.56;100.00
9460;BME280;4768;42.664;23.240;2023-05-11T06:24:48;-9633.31;;;7.83;100.00
9460;BME280;4768;42.664;23.240;2023-05-11T06:27:15;-9636.16;;;7.93;100.00
9460;BME280;4768;42.664;23.240;2023-05-11T06:29:42;-9636.16;;;7.93;100.00
9460;BME280;4768;42.664;23.240;2023-05-11T06:32:09;-9630.19;;;7.72;100.00
9460;BME280;4768;42.664;23.240;2023-05-11T06:34:36;-9631.47;;;7.76;100.00
9460;BME280;4768;42.664;23.240;2023-05-11T06:37:05;-9634.72;;;7.88;100.00
9460;BME280;4768;42.664;23.240;2023-05-11T06:39:34;-9634.44;;;7.87;100.00
9460;BME280;4768;42.664;23.240;2023-05-11T06:42:02;-9635.56;;;7.91;100.00
9460;BME280;4768;42.664;23.240;2023-05-11T06:44:29;-9631.91;;;7.78;100.00
9460;BME280;4768;42.664;23.240;2023-05-11T06:46:56;-9628.50;;;7.66;100.00
9460;BME280;4768;42.664;23.240;2023-05-11T06:49:23;-9630.75;;;7.74;100.00
9460;BME280;4768;42.664;23.240;2023-05-11T06:51:50;-9628.91;;;7.68;100.00
9460;BME280;4768;42.664;23.240;2023-05-11T06:54:18;-9630.34;;;7.72;100.00
9460;BME280;4768;42.664;23.240;2023-05-11T06:56:45;-9636.00;;;7.92;100.00
9460;BME280;4768;42.664;23.240;2023-05-11T06:59:14;-9639.53;;;8.05;100.00
9460;BME280;4768;42.664;23.240;2023-05-11T07:01:41;-9639.69;;;8.05;100.00
9460;BME280;4768;42.664;23.240;2023-05-11T07:04:08;-9640.09;;;8.07;100.00
9460;BME280;4768;42.664;23.240;2023-05-11T07:06:34;-9637.56;;;7.98;100.00
9460;BME280;4768;42.664;23.240;2023-05-11T07:09:01;-9637.28;;;7.97;100.00
9460;BME280;4768;42.664;23.240;2023-05-11T07:11:30;-9642.53;;;8.15;100.00
9460;BME280;4768;42.664;23.240;2023-05-11T07:13:57;-9642.53;;;8.15;100.00
9460;BME280;4768;42.664;23.240;2023-05-11T07:16:24;-9642.81;;;8.16;100.00
9460;BME280;4768;42.664;23.240;2023-05-11T07:18:51;-9643.66;;;8.19;100.00
9460;BME280;4768;42.664;23.240;2023-05-11T07:21:17;-9649.63;;;8.40;100.00
9460;BME280;4768;42.664;23.240;2023-05-11T07:23:46;-9648.91;;;8.37;100.00
9460;BME280;4768;42.664;23.240;2023-05-11T07:26:13;-9650.19;;;8.42;100.00
9460;BME280;4768;42.664;23.240;2023-05-11T07:28:41;-9652.16;;;8.49;100.00
9460;BME280;4768;42.664;23.240;2023-05-11T07:31:08;-9655.69;;;8.61;100.00
9460;BME280;4768;42.664;23.240;2023-05-11T07:33:36;-9658.81;;;8.72;100.00
9460;BME280;4768;42.664;23.240;2023-05-11T07:36:04;-9651.75;;;8.47;100.00
9460;BME280;4768;42.664;23.240;2023-05-11T07:38:31;-9655.84;;;8.62;100.00
9460;BME280;4768;42.664;23.240;2023-05-11T07:40:58;-9647.34;;;8.32;100.00
9460;BME280;4768;42.664;23.240;2023-05-11T07:43:24;-9644.94;;;8.23;100.00
9460;BME280;4768;42.664;23.240;2023-05-11T07:45:53;-9649.03;;;8.38;100.00
9460;BME280;4768;42.664;23.240;2023-05-11T07:48:19;-9646.50;;;8.29;100.00
9460;BME280;4768;42.664;23.240;2023-05-11T07:50:46;-9657.69;;;8.68;100.00
9460;BME280;4768;42.664;23.240;2023-05-11T07:53:13;-9658.97;;;8.72;100.00
9460;BME280;4768;42.664;23.240;2023-05-11T07:55:40;-9659.25;;;8.73;100.00
9460;BME280;4768;42.664;23.240;2023-05-11T07:58:07;-9662.22;;;8.84;100.00
9460;BME280;4768;42.664;23.240;2023-05-11T08:00:34;-9660.25;;;8.77;100.00
9460;BME280;4768;42.664;23.240;2023-05-11T08:03:02;-9665.63;;;8.96;100.00
9460;BME280;4768;42.664;23.240;2023-05-11T08:05:29;-9656.41;;;8.64;100.00
9460;BME280;4768;42.664;23.240;2023-05-11T08:07:57;-9663.22;;;8.87;100.00
9460;BME280;4768;42.664;23.240;2023-05-11T08:10:24;-9656.13;;;8.63;100.00
9460;BME280;4768;42.664;23.240;2023-05-11T08:12:50;-9661.38;;;8.81;100.00
9460;BME280;4768;42.664;23.240;2023-05-11T08:15:17;-9664.63;;;8.92;100.00
9460;BME280;4768;42.664;23.240;2023-05-11T08:17:44;-9674.13;;;9.25;100.00
9460;BME280;4768;42.664;23.240;2023-05-11T08:20:13;-9670.16;;;9.12;100.00
9460;BME280;4768;42.664;23.240;2023-05-11T08:22:40;-9676.41;;;9.33;100.00
9460;BME280;4768;42.664;23.240;2023-05-11T08:25:07;-9691.16;;;9.85;100.00
9460;BME280;4768;42.664;23.240;2023-05-11T08:27:34;-9686.63;;;9.69;100.00
9460;BME280;4768;42.664;23.240;2023-05-11T08:30:01;-9692.00;;;9.88;100.00
9460;BME280;4768;42.664;23.240;2023-05-11T08:32:28;-9694.69;;;9.97;100.00
9460;BME280;4768;42.664;23.240;2023-05-11T08:34:55;-9692.56;;;9.90;100.00
9460;BME280;4768;42.664;23.240;2023-05-11T08:37:23;-9675.41;;;9.30;100.00
9460;BME280;4768;42.664;23.240;2023-05-11T08:39:50;-9673.44;;;9.23;100.00
9460;BME280;4768;42.664;23.240;2023-05-11T08:42:17;-9667.03;;;9.01;100.00
9460;BME280;4768;42.664;23.240;2023-05-11T08:44:46;-9670.72;;;9.14;100.00
9460;BME280;4768;42.664;23.240;2023-05-11T08:47:14;-9676.81;;;9.35;100.00
9460;BME280;4768;42.664;23.240;2023-05-11T08:49:41;-9680.22;;;9.47;100.00
9460;BME280;4768;42.664;23.240;2023-05-11T08:52:09;-9673.13;;;9.22;100.00
9460;BME280;4768;42.664;23.240;2023-05-11T08:54:38;-9671.88;;;9.17;100.00
9460;BME280;4768;42.664;23.240;2023-05-11T08:57:05;-9681.09;;;9.50;100.00
9460;BME280;4768;42.664;23.240;2023-05-11T08:59:32;-9682.66;;;9.55;100.00
9460;BME280;4768;42.664;23.240;2023-05-11T09:02:00;-9682.78;;;9.56;100.00
9460;BME280;4768;42.664;23.240;2023-05-11T09:04:27;-9691.72;;;9.87;100.00
9460;BME280;4768;42.664;23.240;2023-05-11T09:06:54;-9696.25;;;10.03;100.00
9460;BME280;4768;42.664;23.240;2023-05-11T09:09:21;-9695.28;;;9.99;100.00
9460;BME280;4768;42.664;23.240;2023-05-11T09:11:50;-9687.59;;;9.72;100.00
9460;BME280;4768;42.664;23.240;2023-05-11T09:14:17;-9677.13;;;9.36;100.00
9460;BME280;4768;42.664;23.240;2023-05-11T09:16:44;-9678.81;;;9.42;100.00
9460;BME280;4768;42.664;23.240;2023-05-11T09:19:13;-9685.91;;;9.66;100.00
9460;BME280;4768;42.664;23.240;2023-05-11T09:21:41;-9681.09;;;9.50;100.00
9460;BME280;4768;42.664;23.240;2023-05-11T09:24:10;-9679.94;;;9.46;100.00
9460;BME280;4768;42.664;23.240;2023-05-11T09:26:37;-9674.69;;;9.27;100.00
9460;BME280;4768;42.664;23.240;2023-05-11T09:29:05;-9676.13;;;9.32;100.00
9460;BME280;4768;42.664;23.240;2023-05-11T09:31:38;-9681.78;;;9.52;100.00
9460;BME280;4768;42.664;23.240;2023-05-11T09:34:10;-9688.59;;;9.76;100.00
9460;BME280;4768;42.664;23.240;2023-05-11T09:36:37;-9686.34;;;9.68;100.00
9460;BME280;4768;42.664;23.240;2023-05-11T09:39:04;-9681.09;;;9.50;100.00
9460;BME280;4768;42.664;23.240;2023-05-11T09:41:31;-9682.50;;;9.55;100.00
9460;BME280;4768;42.664;23.240;2023-05-11T09:44:10;-9698.97;;;10.12;100.00
9460;BME280;4768;42.664;23.240;2023-05-11T09:46:39;-9685.19;;;9.64;100.00
9460;BME280;4768;42.664;23.240;2023-05-11T09:49:06;-9700.25;;;10.16;100.00
9460;BME280;4768;42.664;23.240;2023-05-11T09:51:34;-9687.19;;;9.71;100.00
9460;BME280;4768;42.664;23.240;2023-05-11T09:54:14;-9684.63;;;9.62;100.00
9460;BME280;4768;42.664;23.240;2023-05-11T09:56:43;-9678.09;;;9.39;100.00
9460;BME280;4768;42.664;23.240;2023-05-11T09:59:14;-9678.38;;;9.40;100.00
9460;BME280;4768;42.664;23.240;2023-05-11T10:01:41;-9674.00;;;9.25;100.00
9460;BME280;4768;42.664;23.240;2023-05-11T10:04:08;-9688.31;;;9.75;100.00
9460;BME280;4768;42.664;23.240;2023-05-11T10:06:46;-9696.84;;;10.05;100.00
9460;BME280;4768;42.664;23.240;2023-05-11T10:09:15;-9687.03;;;9.70;100.00
9460;BME280;4768;42.664;23.240;2023-05-11T10:11:43;-9684.06;;;9.60;100.00
9460;BME280;4768;42.664;23.240;2023-05-11T10:14:13;-9681.78;;;9.52;100.00
9460;BME280;4768;42.664;23.240;2023-05-11T10:16:41;-9680.66;;;9.48;100.00
9460;BME280;4768;42.664;23.240;2023-05-11T10:19:09;-9690.72;;;9.83;100.00
9460;BME280;4768;42.664;23.240;2023-05-11T10:21:36;-9681.50;;;9.51;100.00
9460;BME280;4768;42.664;23.240;2023-05-11T10:24:04;-9684.47;;;9.62;100.00
9460;BME280;4768;42.664;23.240;2023-05-11T10:26:32;-9680.66;;;9.48;100.00
9460;BME280;4768;42.664;23.240;2023-05-11T10:28:59;-9686.91;;;9.70;100.00
9460;BME280;4768;42.664;23.240;2023-05-11T10:31:28;-9689.16;;;9.78;100.00
9460;BME280;4768;42.664;23.240;2023-05-11T10:33:56;-9683.50;;;9.58;100.00
9460;BME280;4768;42.664;23.240;2023-05-11T10:36:23;-9692.00;;;9.88;100.00
9460;BME280;4768;42.664;23.240;2023-05-11T10:38:51;-9689.44;;;9.79;100.00
9460;BME280;4768;42.664;23.240;2023-05-11T10:41:28;-9703.94;;;10.29;100.00
9460;BME280;4768;42.664;23.240;2023-05-11T10:44:19;-9706.63;;;10.39;100.00
9460;BME280;4768;42.664;23.240;2023-05-11T10:47:03;-9707.19;;;10.41;100.00
9460;BME280;4768;42.664;23.240;2023-05-11T10:49:48;-9711.72;;;10.57;100.00
9460;BME280;4768;42.664;23.240;2023-05-11T10:52:34;-9701.53;;;10.21;100.00
9460;BME280;4768;42.664;23.240;2023-05-11T10:55:14;-9709.88;;;10.50;100.00
9460;BME280;4768;42.664;23.240;2023-05-11T10:57:59;-9705.91;;;10.36;100.00
9460;BME280;4768;42.664;23.240;2023-05-11T11:00:55;-9709.88;;;10.50;100.00
9460;BME280;4768;42.664;23.240;2023-05-11T11:03:32;-9702.78;;;10.25;100.00
9460;BME280;4768;42.664;23.240;2023-05-11T11:05:58;-9712.88;;;10.60;100.00
9460;BME280;4768;42.664;23.240;2023-05-11T11:08:25;-9706.06;;;10.37;100.00
9460;BME280;4768;42.664;23.240;2023-05-11T11:10:53;-9717.69;;;10.77;100.00
9460;BME280;4768;42.664;23.240;2023-05-11T11:13:20;-9699.81;;;10.15;100.00
9460;BME280;4768;42.664;23.240;2023-05-11T11:16:07;-9716.69;;;10.74;100.00
9460;BME280;4768;42.664;23.240;2023-05-11T11:18:35;-9705.34;;;10.34;100.00
9460;BME280;4768;42.664;23.240;2023-05-11T11:21:02;-9706.91;;;10.40;100.00
9460;BME280;4768;42.664;23.240;2023-05-11T11:23:46;-9711.16;;;10.55;100.00
9460;BME280;4768;42.664;23.240;2023-05-11T11:26:16;-9707.63;;;10.42;100.00
9460;BME280;4768;42.664;23.240;2023-05-11T11:29:11;-9705.78;;;10.36;100.00
9460;BME280;4768;42.664;23.240;2023-05-11T11:31:38;-9712.16;;;10.58;100.00
9460;BME280;4768;42.664;23.240;2023-05-11T11:34:34;-9713.28;;;10.62;100.00
9460;BME280;4768;42.664;23.240;2023-05-11T11:37:03;-9714.00;;;10.64;100.00
9460;BME280;4768;42.664;23.240;2023-05-11T11:39:45;-9732.47;;;11.29;100.00
9460;BME280;4768;42.664;23.240;2023-05-11T11:42:15;-9720.97;;;10.89;100.00
9460;BME280;4768;42.664;23.240;2023-05-11T11:44:42;-9723.38;;;10.97;100.00
9460;BME280;4768;42.664;23.240;2023-05-11T11:47:10;-9717.69;;;10.77;100.00
9460;BME280;4768;42.664;23.240;2023-05-11T11:49:39;-9710.47;;;10.52;100.00
9460;BME280;4768;42.664;23.240;2023-05-11T11:52:10;-9705.34;;;10.34;100.00
9460;BME280;4768;42.664;23.240;2023-05-11T11:54:37;-9716.41;;;10.73;100.00
9460;BME280;4768;42.664;23.240;2023-05-11T11:57:42;-9719.13;;;10.82;100.00
9460;BME280;4768;42.664;23.240;2023-05-11T12:00:19;-9720.69;;;10.88;100.00
9460;BME280;4768;42.664;23.240;2023-05-11T12:02:47;-9711.31;;;10.55;100.00
9460;BME280;4768;42.664;23.240;2023-05-11T12:05:16;-9706.63;;;10.39;100.00
9460;BME280;4768;42.664;23.240;2023-05-11T12:07:45;-9717.56;;;10.77;100.00
9460;BME280;4768;42.664;23.240;2023-05-11T12:10:14;-9713.56;;;10.63;100.00
9460;BME280;4768;42.664;23.240;2023-05-11T12:12:43;-9727.50;;;11.11;100.00
9460;BME280;4768;42.664;23.240;2023-05-11T12:15:22;-9710.88;;;10.54;100.00
9460;BME280;4768;42.664;23.240;2023-05-11T12:17:49;-9708.19;;;10.44;100.00
9460;BME280;4768;42.664;23.240;2023-05-11T12:20:18;-9714.16;;;10.65;100.00
9460;BME280;4768;42.664;23.240;2023-05-11T12:22:46;-9715.72;;;10.70;100.00
9460;BME280;4768;42.664;23.240;2023-05-11T12:25:13;-9715.56;;;10.70;100.00
9460;BME280;4768;42.664;23.240;2023-05-11T12:27:48;-9709.31;;;10.48;100.00
9460;BME280;4768;42.664;23.240;2023-05-11T12:30:19;-9707.19;;;10.41;100.00
9460;BME280;4768;42.664;23.240;2023-05-11T12:32:47;-9714.28;;;10.65;100.00
9460;BME280;4768;42.664;23.240;2023-05-11T12:35:13;-9706.19;;;10.37;100.00
9460;BME280;4768;42.664;23.240;2023-05-11T12:37:42;-9708.19;;;10.44;100.00
9460;BME280;4768;42.664;23.240;2023-05-11T12:40:11;-9703.06;;;10.26;100.00
9460;BME280;4768;42.664;23.240;2023-05-11T12:42:50;-9715.13;;;10.68;100.00
9460;BME280;4768;42.664;23.240;2023-05-11T12:45:18;-9701.66;;;10.21;100.00
9460;BME280;4768;42.664;23.240;2023-05-11T12:47:45;-9705.78;;;10.36;100.00
9460;BME280;4768;42.664;23.240;2023-05-11T12:50:12;-9702.09;;;10.23;100.00
9460;BME280;4768;42.664;23.240;2023-05-11T12:52:39;-9695.41;;;10.00;100.00
9460;BME280;4768;42.664;23.240;2023-05-11T12:55:08;-9704.06;;;10.30;100.00
9460;BME280;4768;42.664;23.240;2023-05-11T12:57:37;-9705.91;;;10.36;100.00
9460;BME280;4768;42.664;23.240;2023-05-11T13:00:05;-9711.88;;;10.57;100.00
9460;BME280;4768;42.664;23.240;2023-05-11T13:02:41;-9710.88;;;10.54;100.00
9460;BME280;4768;42.664;23.240;2023-05-11T13:05:13;-9706.19;;;10.37;100.00
9460;BME280;4768;42.664;23.240;2023-05-11T13:07:40;-9706.06;;;10.37;100.00
9460;BME280;4768;42.664;23.240;2023-05-11T13:10:11;-9721.38;;;10.90;100.00
9460;BME280;4768;42.664;23.240;2023-05-11T13:12:48;-9715.28;;;10.69;100.00
9460;BME280;4768;42.664;23.240;2023-05-11T13:15:17;-9715.28;;;10.69;100.00
9460;BME280;4768;42.664;23.240;2023-05-11T13:17:44;-9712.31;;;10.59;100.00